sensor_id;sensor_type;location;lat;lon;timestamp;temperature;humidity
71291;DHT22;59073;51.994;4.448;2023-04-30T00:01:19;8.91;81.52
71291;DHT22;59073;51.994;4.448;2023-04-30T00:03:44;8.92;81.67
71291;DHT22;59073;51.994;4.448;2023-04-30T00:06:10;9.09;81.35
71291;DHT22;59073;51.994;4.448;2023-04-30T00:08:35;8.97;81.31
71291;DHT22;59073;51.994;4.448;2023-04-30T00:11:00;8.82;81.69
71291;DHT22;59073;51.994;4.448;2023-04-30T00:13:26;8.84;81.76
71291;DHT22;59073;51.994;4.448;2023-04-30T00:15:51;8.82;81.67
71291;DHT22;59073;51.994;4.448;2023-04-30T00:18:17;8.81;81.70
71291;DHT22;59073;51.994;4.448;2023-04-30T00:20:42;8.79;81.63
71291;DHT22;59073;51.994;4.448;2023-04-30T00:23:07;8.88;81.68
71291;DHT22;59073;51.994;4.448;2023-04-30T00:25:34;8.89;81.62
71291;DHT22;59073;51.994;4.448;2023-04-30T00:27:59;8.98;81.46
71291;DHT22;59073;51.994;4.448;2023-04-30T00:30:25;9.11;81.39
71291;DHT22;59073;51.994;4.448;2023-04-30T00:32:50;9.08;81.32
71291;DHT22;59073;51.994;4.448;2023-04-30T00:35:16;9.14;80.94
71291;DHT22;59073;51.994;4.448;2023-04-30T00:37:41;9.19;80.30
71291;DHT22;59073;51.994;4.448;2023-04-30T00:40:07;9.32;80.06
71291;DHT22;59073;51.994;4.448;2023-04-30T00:42:32;9.51;78.71
71291;DHT22;59073;51.994;4.448;2023-04-30T00:44:58;9.51;78.46
71291;DHT22;59073;51.994;4.448;2023-04-30T00:47:23;9.56;79.50
71291;DHT22;59073;51.994;4.448;2023-04-30T00:49:49;9.57;79.17
71291;DHT22;59073;51.994;4.448;2023-04-30T00:52:14;9.57;79.31
71291;DHT22;59073;51.994;4.448;2023-04-30T00:54:40;9.51;79.54
71291;DHT22;59073;51.994;4.448;2023-04-30T00:57:08;9.50;79.71
71291;DHT22;59073;51.994;4.448;2023-04-30T00:59:37;9.35;79.93
71291;DHT22;59073;51.994;4.448;2023-04-30T01:02:02;9.35;79.58
71291;DHT22;59073;51.994;4.448;2023-04-30T01:04:28;9.30;79.90
71291;DHT22;59073;51.994;4.448;2023-04-30T01:06:55;9.14;80.30
71291;DHT22;59073;51.994;4.448;2023-04-30T01:09:21;9.11;80.43
71291;DHT22;59073;51.994;4.448;2023-04-30T01:11:51;9.01;80.79
71291;DHT22;59073;51.994;4.448;2023-04-30T01:15:13;9.12;80.32
71291;DHT22;59073;51.994;4.448;2023-04-30T01:17:36;9.19;79.68
71291;DHT22;59073;51.994;4.448;2023-04-30T01:20:06;8.98;81.14
71291;DHT22;59073;51.994;4.448;2023-04-30T01:28:08;9.01;80.58
71291;DHT22;59073;51.994;4.448;2023-04-30T01:30:35;9.02;80.52
71291;DHT22;59073;51.994;4.448;2023-04-30T01:33:01;8.91;80.90
71291;DHT22;59073;51.994;4.448;2023-04-30T01:41:28;9.08;80.52
71291;DHT22;59073;51.994;4.448;2023-04-30T01:44:48;9.09;80.02
71291;DHT22;59073;51.994;4.448;2023-04-30T01:50:27;9.11;80.23
71291;DHT22;59073;51.994;4.448;2023-04-30T01:52:59;9.01;80.43
71291;DHT22;59073;51.994;4.448;2023-04-30T01:55:43;8.97;80.42
71291;DHT22;59073;51.994;4.448;2023-04-30T01:58:14;8.92;80.75
71291;DHT22;59073;51.994;4.448;2023-04-30T02:00:39;8.93;80.57
71291;DHT22;59073;51.994;4.448;2023-04-30T02:03:05;8.95;80.52
71291;DHT22;59073;51.994;4.448;2023-04-30T02:05:31;8.81;80.68
71291;DHT22;59073;51.994;4.448;2023-04-30T02:07:56;8.89;80.82
71291;DHT22;59073;51.994;4.448;2023-04-30T02:10:24;8.95;80.82
71291;DHT22;59073;51.994;4.448;2023-04-30T02:12:50;8.89;80.71
71291;DHT22;59073;51.994;4.448;2023-04-30T02:15:15;8.74;81.68
71291;DHT22;59073;51.994;4.448;2023-04-30T02:17:41;8.95;81.18
71291;DHT22;59073;51.994;4.448;2023-04-30T02:20:07;9.07;80.48
71291;DHT22;59073;51.994;4.448;2023-04-30T02:22:34;9.16;80.13
71291;DHT22;59073;51.994;4.448;2023-04-30T02:25:00;9.02;80.35
71291;DHT22;59073;51.994;4.448;2023-04-30T02:27:27;8.89;81.49
71291;DHT22;59073;51.994;4.448;2023-04-30T02:29:52;8.85;81.29
71291;DHT22;59073;51.994;4.448;2023-04-30T02:32:18;8.77;81.28
71291;DHT22;59073;51.994;4.448;2023-04-30T02:34:44;8.75;81.06
71291;DHT22;59073;51.994;4.448;2023-04-30T02:37:10;8.67;81.68
71291;DHT22;59073;51.994;4.448;2023-04-30T02:39:35;8.43;82.77
71291;DHT22;59073;51.994;4.448;2023-04-30T02:42:01;8.19;84.17
71291;DHT22;59073;51.994;4.448;2023-04-30T02:44:28;8.05;85.16
71291;DHT22;59073;51.994;4.448;2023-04-30T02:46:53;8.12;85.63
71291;DHT22;59073;51.994;4.448;2023-04-30T02:49:18;8.30;84.26
71291;DHT22;59073;51.994;4.448;2023-04-30T02:51:44;8.41;83.38
71291;DHT22;59073;51.994;4.448;2023-04-30T02:54:09;8.44;83.07
71291;DHT22;59073;51.994;4.448;2023-04-30T02:56:35;8.27;83.39
71291;DHT22;59073;51.994;4.448;2023-04-30T02:59:00;8.16;84.53
71291;DHT22;59073;51.994;4.448;2023-04-30T03:01:26;8.39;83.78
71291;DHT22;59073;51.994;4.448;2023-04-30T03:03:51;8.23;83.87
71291;DHT22;59073;51.994;4.448;2023-04-30T03:06:17;8.19;84.44
71291;DHT22;59073;51.994;4.448;2023-04-30T03:08:42;8.27;84.37
71291;DHT22;59073;51.994;4.448;2023-04-30T03:11:08;8.48;83.47
71291;DHT22;59073;51.994;4.448;2023-04-30T03:13:33;8.57;82.35
71291;DHT22;59073;51.994;4.448;2023-04-30T03:16:00;8.41;82.35
71291;DHT22;59073;51.994;4.448;2023-04-30T03:18:27;8.40;82.83
71291;DHT22;59073;51.994;4.448;2023-04-30T03:20:53;8.54;82.48
71291;DHT22;59073;51.994;4.448;2023-04-30T03:23:18;8.56;81.88
71291;DHT22;59073;51.994;4.448;2023-04-30T03:25:44;8.25;83.12
71291;DHT22;59073;51.994;4.448;2023-04-30T03:28:09;8.03;84.32
71291;DHT22;59073;51.994;4.448;2023-04-30T03:30:35;7.96;85.29
71291;DHT22;59073;51.994;4.448;2023-04-30T03:33:00;8.26;84.59
71291;DHT22;59073;51.994;4.448;2023-04-30T03:35:26;8.48;83.21
71291;DHT22;59073;51.994;4.448;2023-04-30T03:37:51;8.56;82.35
71291;DHT22;59073;51.994;4.448;2023-04-30T03:40:17;8.67;81.92
71291;DHT22;59073;51.994;4.448;2023-04-30T03:42:42;8.57;82.21
71291;DHT22;59073;51.994;4.448;2023-04-30T03:45:08;8.56;82.36
71291;DHT22;59073;51.994;4.448;2023-04-30T03:47:34;8.56;82.31
71291;DHT22;59073;51.994;4.448;2023-04-30T03:50:00;8.56;82.04
71291;DHT22;59073;51.994;4.448;2023-04-30T03:52:25;8.47;81.48
71291;DHT22;59073;51.994;4.448;2023-04-30T03:54:51;8.00;84.22
71291;DHT22;59073;51.994;4.448;2023-04-30T03:57:17;7.76;85.29
71291;DHT22;59073;51.994;4.448;2023-04-30T03:59:42;7.68;85.89
71291;DHT22;59073;51.994;4.448;2023-04-30T04:02:08;7.71;86.25
71291;DHT22;59073;51.994;4.448;2023-04-30T04:04:34;7.69;86.06
71291;DHT22;59073;51.994;4.448;2023-04-30T04:06:59;7.65;86.48
71291;DHT22;59073;51.994;4.448;2023-04-30T04:09:26;7.75;86.73
71291;DHT22;59073;51.994;4.448;2023-04-30T04:11:52;7.89;86.42
71291;DHT22;59073;51.994;4.448;2023-04-30T04:14:17;8.02;85.96
71291;DHT22;59073;51.994;4.448;2023-04-30T04:16:43;8.00;85.74
71291;DHT22;59073;51.994;4.448;2023-04-30T04:19:08;7.92;85.88
71291;DHT22;59073;51.994;4.448;2023-04-30T04:21:34;7.85;85.90
71291;DHT22;59073;51.994;4.448;2023-04-30T04:23:59;7.92;85.96
71291;DHT22;59073;51.994;4.448;2023-04-30T04:26:32;8.00;85.36
71291;DHT22;59073;51.994;4.448;2023-04-30T04:28:58;8.07;85.28
71291;DHT22;59073;51.994;4.448;2023-04-30T04:31:23;8.22;84.57
71291;DHT22;59073;51.994;4.448;2023-04-30T04:33:49;8.41;84.15
71291;DHT22;59073;51.994;4.448;2023-04-30T04:36:22;8.70;83.49
71291;DHT22;59073;51.994;4.448;2023-04-30T04:38:47;8.93;82.41
71291;DHT22;59073;51.994;4.448;2023-04-30T04:41:13;9.05;81.61
71291;DHT22;59073;51.994;4.448;2023-04-30T04:43:38;9.26;81.02
71291;DHT22;59073;51.994;4.448;2023-04-30T04:46:04;9.30;80.40
71291;DHT22;59073;51.994;4.448;2023-04-30T04:48:29;9.39;80.20
71291;DHT22;59073;51.994;4.448;2023-04-30T04:50:55;9.53;79.76
71291;DHT22;59073;51.994;4.448;2023-04-30T04:53:20;9.63;79.01
71291;DHT22;59073;51.994;4.448;2023-04-30T04:55:45;9.63;78.96
71291;DHT22;59073;51.994;4.448;2023-04-30T04:58:11;9.76;78.93
71291;DHT22;59073;51.994;4.448;2023-04-30T05:00:38;9.88;78.53
71291;DHT22;59073;51.994;4.448;2023-04-30T05:03:03;10.10;77.78
71291;DHT22;59073;51.994;4.448;2023-04-30T05:05:28;10.60;76.12
71291;DHT22;59073;51.994;4.448;2023-04-30T05:07:54;11.00;74.80
71291;DHT22;59073;51.994;4.448;2023-04-30T05:10:20;10.86;75.42
71291;DHT22;59073;51.994;4.448;2023-04-30T05:12:45;10.90;75.57
71291;DHT22;59073;51.994;4.448;2023-04-30T05:15:11;11.03;74.80
71291;DHT22;59073;51.994;4.448;2023-04-30T05:17:36;10.99;74.57
71291;DHT22;59073;51.994;4.448;2023-04-30T05:20:02;10.80;75.32
71291;DHT22;59073;51.994;4.448;2023-04-30T05:22:27;10.69;75.49
71291;DHT22;59073;51.994;4.448;2023-04-30T05:24:53;10.65;75.08
71291;DHT22;59073;51.994;4.448;2023-04-30T05:27:18;10.95;74.87
71291;DHT22;59073;51.994;4.448;2023-04-30T05:29:44;11.07;74.60
71291;DHT22;59073;51.994;4.448;2023-04-30T05:32:09;11.19;74.00
71291;DHT22;59073;51.994;4.448;2023-04-30T05:34:34;11.42;73.11
71291;DHT22;59073;51.994;4.448;2023-04-30T05:37:00;11.79;71.65
71291;DHT22;59073;51.994;4.448;2023-04-30T05:39:26;12.06;71.50
71291;DHT22;59073;51.994;4.448;2023-04-30T05:41:51;12.09;71.07
71291;DHT22;59073;51.994;4.448;2023-04-30T05:44:16;12.56;69.80
71291;DHT22;59073;51.994;4.448;2023-04-30T05:46:42;12.53;70.36
71291;DHT22;59073;51.994;4.448;2023-04-30T05:49:07;12.67;68.89
71291;DHT22;59073;51.994;4.448;2023-04-30T05:51:33;13.08;67.33
71291;DHT22;59073;51.994;4.448;2023-04-30T05:53:58;12.74;68.10
71291;DHT22;59073;51.994;4.448;2023-04-30T05:56:24;12.91;67.80
71291;DHT22;59073;51.994;4.448;2023-04-30T05:58:50;13.28;66.83
71291;DHT22;59073;51.994;4.448;2023-04-30T06:01:20;12.65;68.22
71291;DHT22;59073;51.994;4.448;2023-04-30T06:03:46;13.19;66.60
71291;DHT22;59073;51.994;4.448;2023-04-30T06:06:11;13.42;66.50
71291;DHT22;59073;51.994;4.448;2023-04-30T06:08:37;12.95;67.54
71291;DHT22;59073;51.994;4.448;2023-04-30T06:11:02;13.62;67.10
71291;DHT22;59073;51.994;4.448;2023-04-30T06:13:30;13.90;65.60
71291;DHT22;59073;51.994;4.448;2023-04-30T06:15:56;14.24;64.63
71291;DHT22;59073;51.994;4.448;2023-04-30T06:18:21;14.73;62.16
71291;DHT22;59073;51.994;4.448;2023-04-30T06:20:47;14.52;62.22
71291;DHT22;59073;51.994;4.448;2023-04-30T06:23:12;14.03;65.07
71291;DHT22;59073;51.994;4.448;2023-04-30T06:25:38;14.42;62.61
71291;DHT22;59073;51.994;4.448;2023-04-30T06:28:03;15.07;60.70
71291;DHT22;59073;51.994;4.448;2023-04-30T06:30:30;15.26;61.00
71291;DHT22;59073;51.994;4.448;2023-04-30T06:32:56;14.21;63.69
71291;DHT22;59073;51.994;4.448;2023-04-30T06:35:21;13.76;65.16
71291;DHT22;59073;51.994;4.448;2023-04-30T06:37:47;13.60;65.45
71291;DHT22;59073;51.994;4.448;2023-04-30T06:40:12;13.84;64.68
71291;DHT22;59073;51.994;4.448;2023-04-30T06:42:38;13.52;66.01
71291;DHT22;59073;51.994;4.448;2023-04-30T06:45:03;13.49;66.13
71291;DHT22;59073;51.994;4.448;2023-04-30T06:47:31;14.14;63.94
71291;DHT22;59073;51.994;4.448;2023-04-30T06:50:02;13.94;64.89
71291;DHT22;59073;51.994;4.448;2023-04-30T06:52:29;13.73;66.32
71291;DHT22;59073;51.994;4.448;2023-04-30T06:54:55;13.28;66.37
71291;DHT22;59073;51.994;4.448;2023-04-30T06:57:20;13.29;67.48
71291;DHT22;59073;51.994;4.448;2023-04-30T06:59:46;13.25;68.98
71291;DHT22;59073;51.994;4.448;2023-04-30T07:02:12;12.95;69.96
71291;DHT22;59073;51.994;4.448;2023-04-30T07:04:37;12.81;69.13
71291;DHT22;59073;51.994;4.448;2023-04-30T07:07:02;12.94;69.35
71291;DHT22;59073;51.994;4.448;2023-04-30T07:09:28;13.43;69.37
71291;DHT22;59073;51.994;4.448;2023-04-30T07:11:54;13.70;67.36
71291;DHT22;59073;51.994;4.448;2023-04-30T07:14:20;13.46;66.74
71291;DHT22;59073;51.994;4.448;2023-04-30T07:16:46;13.25;68.11
71291;DHT22;59073;51.994;4.448;2023-04-30T07:19:13;13.05;70.72
71291;DHT22;59073;51.994;4.448;2023-04-30T07:21:39;13.50;68.90
71291;DHT22;59073;51.994;4.448;2023-04-30T07:24:04;13.55;67.33
71291;DHT22;59073;51.994;4.448;2023-04-30T07:26:30;13.50;68.93
71291;DHT22;59073;51.994;4.448;2023-04-30T07:28:55;13.70;70.08
71291;DHT22;59073;51.994;4.448;2023-04-30T07:31:20;13.76;67.32
71291;DHT22;59073;51.994;4.448;2023-04-30T07:33:46;13.23;68.60
71291;DHT22;59073;51.994;4.448;2023-04-30T07:36:12;13.72;67.84
71291;DHT22;59073;51.994;4.448;2023-04-30T07:38:38;14.09;67.60
71291;DHT22;59073;51.994;4.448;2023-04-30T07:41:03;13.49;67.64
71291;DHT22;59073;51.994;4.448;2023-04-30T07:43:29;13.97;67.52
71291;DHT22;59073;51.994;4.448;2023-04-30T07:45:55;13.76;67.15
71291;DHT22;59073;51.994;4.448;2023-04-30T07:48:20;13.80;69.83
71291;DHT22;59073;51.994;4.448;2023-04-30T07:50:47;14.21;66.28
71291;DHT22;59073;51.994;4.448;2023-04-30T07:53:12;14.55;66.91
71291;DHT22;59073;51.994;4.448;2023-04-30T07:55:38;14.72;65.15
71291;DHT22;59073;51.994;4.448;2023-04-30T07:58:03;13.79;66.62
71291;DHT22;59073;51.994;4.448;2023-04-30T08:00:29;14.57;66.58
71291;DHT22;59073;51.994;4.448;2023-04-30T08:02:56;14.99;63.17
71291;DHT22;59073;51.994;4.448;2023-04-30T08:05:22;15.51;62.43
71291;DHT22;59073;51.994;4.448;2023-04-30T08:07:47;15.61;62.55
71291;DHT22;59073;51.994;4.448;2023-04-30T08:10:13;15.34;63.44
71291;DHT22;59073;51.994;4.448;2023-04-30T08:12:38;15.47;62.67
71291;DHT22;59073;51.994;4.448;2023-04-30T08:15:05;15.04;64.23
71291;DHT22;59073;51.994;4.448;2023-04-30T08:17:32;14.88;66.33
71291;DHT22;59073;51.994;4.448;2023-04-30T08:19:58;15.24;67.53
71291;DHT22;59073;51.994;4.448;2023-04-30T08:22:24;15.43;66.30
71291;DHT22;59073;51.994;4.448;2023-04-30T08:24:49;14.89;66.32
71291;DHT22;59073;51.994;4.448;2023-04-30T08:27:15;14.88;67.43
71291;DHT22;59073;51.994;4.448;2023-04-30T08:29:41;15.02;64.94
71291;DHT22;59073;51.994;4.448;2023-04-30T08:32:06;15.13;64.19
71291;DHT22;59073;51.994;4.448;2023-04-30T08:34:33;15.39;64.46
71291;DHT22;59073;51.994;4.448;2023-04-30T08:36:59;15.27;66.94
71291;DHT22;59073;51.994;4.448;2023-04-30T08:39:25;15.64;66.19
71291;DHT22;59073;51.994;4.448;2023-04-30T08:41:54;15.90;64.05
71291;DHT22;59073;51.994;4.448;2023-04-30T08:44:26;15.51;65.37
71291;DHT22;59073;51.994;4.448;2023-04-30T08:46:56;15.39;65.87
71291;DHT22;59073;51.994;4.448;2023-04-30T08:49:24;16.18;64.51
71291;DHT22;59073;51.994;4.448;2023-04-30T08:51:50;16.42;64.30
71291;DHT22;59073;51.994;4.448;2023-04-30T08:54:17;16.22;62.65
71291;DHT22;59073;51.994;4.448;2023-04-30T08:56:45;16.48;62.05
71291;DHT22;59073;51.994;4.448;2023-04-30T08:59:12;16.69;62.12
71291;DHT22;59073;51.994;4.448;2023-04-30T09:01:37;16.56;61.67
71291;DHT22;59073;51.994;4.448;2023-04-30T09:04:03;16.52;62.53
71291;DHT22;59073;51.994;4.448;2023-04-30T09:06:29;16.43;62.10
71291;DHT22;59073;51.994;4.448;2023-04-30T09:08:56;16.53;63.59
71291;DHT22;59073;51.994;4.448;2023-04-30T09:11:26;16.62;60.65
71291;DHT22;59073;51.994;4.448;2023-04-30T09:13:54;16.83;60.13
71291;DHT22;59073;51.994;4.448;2023-04-30T09:16:20;17.04;61.69
71291;DHT22;59073;51.994;4.448;2023-04-30T09:18:46;17.21;63.43
71291;DHT22;59073;51.994;4.448;2023-04-30T09:21:12;16.83;62.32
71291;DHT22;59073;51.994;4.448;2023-04-30T09:23:57;16.53;61.64
71291;DHT22;59073;51.994;4.448;2023-04-30T09:26:36;16.52;63.96
71291;DHT22;59073;51.994;4.448;2023-04-30T09:29:04;17.06;63.60
71291;DHT22;59073;51.994;4.448;2023-04-30T09:31:37;17.01;58.56
71291;DHT22;59073;51.994;4.448;2023-04-30T09:34:03;16.43;60.52
71291;DHT22;59073;51.994;4.448;2023-04-30T09:36:31;16.48;60.58
71291;DHT22;59073;51.994;4.448;2023-04-30T09:39:05;16.56;61.46
71291;DHT22;59073;51.994;4.448;2023-04-30T09:41:31;17.11;62.04
71291;DHT22;59073;51.994;4.448;2023-04-30T09:43:56;17.31;61.28
71291;DHT22;59073;51.994;4.448;2023-04-30T09:46:33;16.80;60.84
71291;DHT22;59073;51.994;4.448;2023-04-30T09:49:01;16.59;60.18
71291;DHT22;59073;51.994;4.448;2023-04-30T09:51:27;16.28;60.71
71291;DHT22;59073;51.994;4.448;2023-04-30T09:53:53;16.30;62.21
71291;DHT22;59073;51.994;4.448;2023-04-30T09:56:21;16.28;61.70
71291;DHT22;59073;51.994;4.448;2023-04-30T09:58:50;16.97;61.49
71291;DHT22;59073;51.994;4.448;2023-04-30T10:01:17;16.85;59.13
71291;DHT22;59073;51.994;4.448;2023-04-30T10:03:44;16.34;62.14
71291;DHT22;59073;51.994;4.448;2023-04-30T10:06:12;16.70;64.44
71291;DHT22;59073;51.994;4.448;2023-04-30T10:08:50;17.25;59.86
71291;DHT22;59073;51.994;4.448;2023-04-30T10:11:20;17.53;57.23
71291;DHT22;59073;51.994;4.448;2023-04-30T10:13:56;17.01;58.46
71291;DHT22;59073;51.994;4.448;2023-04-30T10:16:52;17.04;59.60
71291;DHT22;59073;51.994;4.448;2023-04-30T10:19:23;17.01;57.62
71291;DHT22;59073;51.994;4.448;2023-04-30T10:21:50;17.17;59.17
71291;DHT22;59073;51.994;4.448;2023-04-30T10:24:17;16.90;61.55
71291;DHT22;59073;51.994;4.448;2023-04-30T10:26:44;17.00;59.40
71291;DHT22;59073;51.994;4.448;2023-04-30T10:29:12;17.15;59.31
71291;DHT22;59073;51.994;4.448;2023-04-30T10:31:40;17.41;59.26
71291;DHT22;59073;51.994;4.448;2023-04-30T10:36:59;16.55;60.36
71291;DHT22;59073;51.994;4.448;2023-04-30T10:39:28;16.74;57.87
71291;DHT22;59073;51.994;4.448;2023-04-30T10:42:02;16.62;60.39
71291;DHT22;59073;51.994;4.448;2023-04-30T10:44:33;17.08;57.79
71291;DHT22;59073;51.994;4.448;2023-04-30T10:47:02;17.32;56.82
71291;DHT22;59073;51.994;4.448;2023-04-30T10:49:28;17.07;58.43
71291;DHT22;59073;51.994;4.448;2023-04-30T10:51:54;17.22;56.79
71291;DHT22;59073;51.994;4.448;2023-04-30T10:54:30;17.12;58.54
71291;DHT22;59073;51.994;4.448;2023-04-30T10:57:13;17.46;55.86
71291;DHT22;59073;51.994;4.448;2023-04-30T11:02:42;17.78;56.57
71291;DHT22;59073;51.994;4.448;2023-04-30T11:05:12;17.32;56.52
71291;DHT22;59073;51.994;4.448;2023-04-30T11:07:48;17.21;56.29
71291;DHT22;59073;51.994;4.448;2023-04-30T11:10:15;17.31;55.52
71291;DHT22;59073;51.994;4.448;2023-04-30T11:12:47;17.89;55.85
71291;DHT22;59073;51.994;4.448;2023-04-30T11:15:14;18.18;56.54
71291;DHT22;59073;51.994;4.448;2023-04-30T11:17:42;17.79;56.46
71291;DHT22;59073;51.994;4.448;2023-04-30T11:20:12;17.43;56.69
71291;DHT22;59073;51.994;4.448;2023-04-30T11:22:38;17.46;58.72
71291;DHT22;59073;51.994;4.448;2023-04-30T11:25:08;17.92;56.66
71291;DHT22;59073;51.994;4.448;2023-04-30T11:27:35;17.97;54.40
71291;DHT22;59073;51.994;4.448;2023-04-30T11:30:08;18.02;54.85
71291;DHT22;59073;51.994;4.448;2023-04-30T11:32:36;18.13;54.60
71291;DHT22;59073;51.994;4.448;2023-04-30T11:35:04;18.13;54.01
71291;DHT22;59073;51.994;4.448;2023-04-30T11:40:07;17.80;58.50
71291;DHT22;59073;51.994;4.448;2023-04-30T11:42:36;18.52;56.73
71291;DHT22;59073;51.994;4.448;2023-04-30T11:47:44;18.36;52.95
71291;DHT22;59073;51.994;4.448;2023-04-30T11:50:13;18.10;53.36
71291;DHT22;59073;51.994;4.448;2023-04-30T11:52:39;17.58;56.42
71291;DHT22;59073;51.994;4.448;2023-04-30T11:55:18;17.85;53.91
71291;DHT22;59073;51.994;4.448;2023-04-30T11:57:46;17.96;53.14
71291;DHT22;59073;51.994;4.448;2023-04-30T12:00:14;17.96;53.29
71291;DHT22;59073;51.994;4.448;2023-04-30T12:02:41;18.02;55.14
71291;DHT22;59073;51.994;4.448;2023-04-30T12:05:18;17.66;54.26
71291;DHT22;59073;51.994;4.448;2023-04-30T12:07:46;17.52;55.12
71291;DHT22;59073;51.994;4.448;2023-04-30T12:10:13;17.87;55.84
71291;DHT22;59073;51.994;4.448;2023-04-30T12:12:39;18.13;54.32
71291;DHT22;59073;51.994;4.448;2023-04-30T12:17:39;17.79;56.83
71291;DHT22;59073;51.994;4.448;2023-04-30T12:20:07;17.43;57.35
71291;DHT22;59073;51.994;4.448;2023-04-30T12:22:33;17.65;57.64
71291;DHT22;59073;51.994;4.448;2023-04-30T12:24:59;17.59;52.67
71291;DHT22;59073;51.994;4.448;2023-04-30T12:27:25;17.45;55.19
71291;DHT22;59073;51.994;4.448;2023-04-30T12:29:52;17.59;56.91
71291;DHT22;59073;51.994;4.448;2023-04-30T12:32:20;18.03;58.38
71291;DHT22;59073;51.994;4.448;2023-04-30T12:34:46;17.83;57.33
71291;DHT22;59073;51.994;4.448;2023-04-30T12:37:16;17.85;55.29
71291;DHT22;59073;51.994;4.448;2023-04-30T12:39:41;17.36;56.37
71291;DHT22;59073;51.994;4.448;2023-04-30T12:42:07;17.32;58.13
71291;DHT22;59073;51.994;4.448;2023-04-30T12:44:42;17.69;58.09
71291;DHT22;59073;51.994;4.448;2023-04-30T12:47:11;17.76;56.51
71291;DHT22;59073;51.994;4.448;2023-04-30T12:49:38;17.85;56.08
71291;DHT22;59073;51.994;4.448;2023-04-30T12:52:09;17.55;59.97
71291;DHT22;59073;51.994;4.448;2023-04-30T12:54:36;17.63;58.68
71291;DHT22;59073;51.994;4.448;2023-04-30T12:57:05;17.83;57.44
71291;DHT22;59073;51.994;4.448;2023-04-30T13:02:15;17.82;55.78
71291;DHT22;59073;51.994;4.448;2023-04-30T13:04:43;17.93;58.78
71291;DHT22;59073;51.994;4.448;2023-04-30T13:07:09;17.72;60.82
71291;DHT22;59073;51.994;4.448;2023-04-30T13:09:36;17.97;57.39
71291;DHT22;59073;51.994;4.448;2023-04-30T13:12:03;17.82;57.91
71291;DHT22;59073;51.994;4.448;2023-04-30T13:14:30;17.79;57.46
71291;DHT22;59073;51.994;4.448;2023-04-30T13:16:56;17.73;58.99
71291;DHT22;59073;51.994;4.448;2023-04-30T13:19:21;17.87;57.08
71291;DHT22;59073;51.994;4.448;2023-04-30T13:21:47;17.62;56.24
71291;DHT22;59073;51.994;4.448;2023-04-30T13:24:12;18.12;57.85
71291;DHT22;59073;51.994;4.448;2023-04-30T13:26:38;18.04;55.30
71291;DHT22;59073;51.994;4.448;2023-04-30T13:29:03;17.62;55.68
71291;DHT22;59073;51.994;4.448;2023-04-30T13:31:30;18.03;56.10
71291;DHT22;59073;51.994;4.448;2023-04-30T13:33:55;17.92;57.85
71291;DHT22;59073;51.994;4.448;2023-04-30T13:36:21;18.40;57.23
71291;DHT22;59073;51.994;4.448;2023-04-30T13:38:46;18.26;56.67
71291;DHT22;59073;51.994;4.448;2023-04-30T13:41:12;17.58;56.43
71291;DHT22;59073;51.994;4.448;2023-04-30T13:43:38;17.83;56.66
71291;DHT22;59073;51.994;4.448;2023-04-30T13:46:05;17.65;55.93
71291;DHT22;59073;51.994;4.448;2023-04-30T13:48:31;17.73;54.48
71291;DHT22;59073;51.994;4.448;2023-04-30T13:50:56;17.58;56.12
71291;DHT22;59073;51.994;4.448;2023-04-30T13:53:21;17.41;55.93
71291;DHT22;59073;51.994;4.448;2023-04-30T13:55:47;17.35;58.20
71291;DHT22;59073;51.994;4.448;2023-04-30T13:58:13;17.71;57.79
71291;DHT22;59073;51.994;4.448;2023-04-30T14:00:38;18.03;55.67
71291;DHT22;59073;51.994;4.448;2023-04-30T14:03:04;18.14;52.13
71291;DHT22;59073;51.994;4.448;2023-04-30T14:05:29;18.14;55.93
71291;DHT22;59073;51.994;4.448;2023-04-30T14:07:54;18.27;53.67
71291;DHT22;59073;51.994;4.448;2023-04-30T14:10:20;18.12;53.01
71291;DHT22;59073;51.994;4.448;2023-04-30T14:12:45;18.04;54.67
71291;DHT22;59073;51.994;4.448;2023-04-30T14:15:11;18.26;52.40
71291;DHT22;59073;51.994;4.448;2023-04-30T14:17:36;18.00;55.29
71291;DHT22;59073;51.994;4.448;2023-04-30T14:20:03;17.80;53.46
71291;DHT22;59073;51.994;4.448;2023-04-30T14:22:29;17.56;52.24
71291;DHT22;59073;51.994;4.448;2023-04-30T14:24:55;17.63;52.47
71291;DHT22;59073;51.994;4.448;2023-04-30T14:27:20;17.94;51.49
71291;DHT22;59073;51.994;4.448;2023-04-30T14:29:46;18.18;54.00
71291;DHT22;59073;51.994;4.448;2023-04-30T14:32:12;18.29;53.38
71291;DHT22;59073;51.994;4.448;2023-04-30T14:34:41;18.45;50.32
71291;DHT22;59073;51.994;4.448;2023-04-30T14:37:06;18.44;51.05
71291;DHT22;59073;51.994;4.448;2023-04-30T14:39:31;18.16;49.11
71291;DHT22;59073;51.994;4.448;2023-04-30T14:41:57;18.16;50.72
71291;DHT22;59073;51.994;4.448;2023-04-30T14:44:22;17.96;52.14
71291;DHT22;59073;51.994;4.448;2023-04-30T14:46:50;18.03;54.91
71291;DHT22;59073;51.994;4.448;2023-04-30T14:49:15;17.94;52.78
71291;DHT22;59073;51.994;4.448;2023-04-30T14:51:41;17.87;52.64
71291;DHT22;59073;51.994;4.448;2023-04-30T14:54:06;17.80;54.56
71291;DHT22;59073;51.994;4.448;2023-04-30T14:56:32;17.79;51.87
71291;DHT22;59073;51.994;4.448;2023-04-30T14:58:57;17.76;51.56
71291;DHT22;59073;51.994;4.448;2023-04-30T15:01:23;17.85;52.10
71291;DHT22;59073;51.994;4.448;2023-04-30T15:03:48;18.02;50.68
71291;DHT22;59073;51.994;4.448;2023-04-30T15:06:14;18.18;52.36
71291;DHT22;59073;51.994;4.448;2023-04-30T15:08:39;18.14;50.84
71291;DHT22;59073;51.994;4.448;2023-04-30T15:11:05;17.99;52.06
71291;DHT22;59073;51.994;4.448;2023-04-30T15:13:34;18.00;53.18
71291;DHT22;59073;51.994;4.448;2023-04-30T15:16:00;17.80;51.98
71291;DHT22;59073;51.994;4.448;2023-04-30T15:18:25;17.85;51.26
71291;DHT22;59073;51.994;4.448;2023-04-30T15:20:51;17.82;52.60
71291;DHT22;59073;51.994;4.448;2023-04-30T15:23:16;17.38;51.88
71291;DHT22;59073;51.994;4.448;2023-04-30T15:25:41;17.51;54.03
71291;DHT22;59073;51.994;4.448;2023-04-30T15:28:08;17.55;52.85
71291;DHT22;59073;51.994;4.448;2023-04-30T15:30:35;17.61;52.37
71291;DHT22;59073;51.994;4.448;2023-04-30T15:33:00;17.56;53.37
71291;DHT22;59073;51.994;4.448;2023-04-30T15:35:26;17.43;54.75
71291;DHT22;59073;51.994;4.448;2023-04-30T15:37:52;17.32;53.68
71291;DHT22;59073;51.994;4.448;2023-04-30T15:40:17;17.12;55.05
71291;DHT22;59073;51.994;4.448;2023-04-30T15:42:43;17.31;53.46
71291;DHT22;59073;51.994;4.448;2023-04-30T15:45:09;17.49;52.93
71291;DHT22;59073;51.994;4.448;2023-04-30T15:47:38;17.79;52.73
71291;DHT22;59073;51.994;4.448;2023-04-30T15:50:05;17.79;51.21
71291;DHT22;59073;51.994;4.448;2023-04-30T15:52:31;17.99;51.35
71291;DHT22;59073;51.994;4.448;2023-04-30T15:54:56;17.87;53.38
71291;DHT22;59073;51.994;4.448;2023-04-30T15:57:21;17.66;50.94
71291;DHT22;59073;51.994;4.448;2023-04-30T15:59:47;17.71;53.78
71291;DHT22;59073;51.994;4.448;2023-04-30T16:02:12;17.63;53.98
71291;DHT22;59073;51.994;4.448;2023-04-30T16:04:38;17.41;53.48